Terminal Aerodrome Forecast
Issued by NWS Northern Indiana

Home | Current Version | Previous Version | Graphics & Text | Print | Product List | Glossary On
Versions: 1 2 3 4 5 6 7 8 9 10 11 12 13
000
FTUS43 KIWX 262300
TAFFWA
TAF
KFWA 262338Z 2700/2724 29005KT P6SM FEW040 BKN250
     FM270700 03003KT P6SM SCT150
      TEMPO 2709/2713 5SM BR SCT010
     FM271400 03007KT P6SM SCT040 BKN100=

USA.gov is the U.S. government's official web portal to all federal, state and local government web resources and services.